Hubbell, Michigan
Current Conditions -  °F | °C
As of 12:53 PM on Friday 21 Nov 2014 (Local Time) from KCMX Reporting Station
Overcast Overcast  
Wind Chill:   Ceiling: 9500
Heat Index: 17°   Visibility: 10mi
Dew Point:   Wind: 12mph
Humidity: 62%   Direction: 200°SSW
Pressure: 30.06"   Gusts: NA
Location:  47.17°N, 88.43°W
Report Text: KCMX 211753Z AUTO 20010KT 10SM OVC095 M08/M14 A3006 RMK AO2 SLP203 60000 T10831144 11083 21122 58032
Loading
Personal Weather Stations






























Interactive Weather Map New forecast layout! Learn more

10-Day Weather Forecast

Advertisements
Track Severe Weather on mobile